Joshua Tree, CA

6:05 AM PDT on October 31, 2014 (GMT -0700)
Upper Sky Harbor | Change Station
CLOSE
Current Station
Personal Weather Station
Location: Yucca Valley, CA
Elevation: 3904 ft
Nearby Weather Stations

Elev 3904 ft 34.08 °N, 116.37 °W | Updated 5 seconds ago

Clear
Clear
58.8 °F
Feels Like 58.8 °F
N
2.0
Wind Variable Wind from East
Gusts 6.0 mph

Today
High -- | Low -- °F
--% Chance of Precip.
Yesterday
High -- | Low -- °F
Precip. -- in
7:04 AM 5:53 PM
First Quarter, 55% visible
Pressure 29.92 in
Visibility 10.0 miles
Clouds Clear
Dew Point 10 °F
Humidity 14%
Rainfall 0.00 in
Snow Depth Not available.
UV 0 out of 12
Pollen 2.70 out of 12
Air Quality Not available.
Flu Activity Not available.
METAR KNXP 311256Z AUTO 00000KT 10SM CLR 13/01 A3000 RMK AO2 SLP130 T01330011 $

More Conditions Fewer Conditions

Pressure 29.92 in
Visibility 10.0 miles
Clouds Clear
Dew Point 10 °F
Humidity 14%
Rainfall 0.00 in
Snow Depth Not available.
UV 0 out of 12
Pollen 2.70 out of 12
Air Quality Not available.
Flu Activity Not available.
METAR KNXP 311256Z AUTO 00000KT 10SM CLR 13/01 A3000 RMK AO2 SLP130 T01330011 $

More Conditions Fewer Conditions

10-Day Weather Forecast

Almanac

Astronomy

Oct. 31, 2014 Rise Set
Actual Time
Civil Twilight
Nautical Twilight
Astronomical Twilight
Moon
Length of Visible Light
Length of Day
Tomorrow will be .
, % of the Moon is Illuminated

Today's Extremes

State Highs State Lows

Community

WunderPhotos

Upload Photos

1,766,601 photos uploaded!

WunderBlogs® & News

Nearby

Air Quality

  Air Quality AQ Index Pollutant
Not available.

Snow Depth

Station Depth Elevation

Earthquake Activity

City Distance Mag. Time & Date
Minimum magnitude displayed is 2.5.

Coastal Water Temperatures

Place Temperature

Nearby Weather Stations